createdAt,value
2019-01-26T00:02:25.326Z,33.63
2019-01-26T00:08:31.399Z,35.60
2019-01-26T00:14:37.336Z,34.40
2019-01-26T00:20:43.268Z,37.60
2019-01-26T00:26:49.219Z,40.03
2019-01-26T00:32:55.135Z,40.97
2019-01-26T00:39:00.854Z,44.33
2019-01-26T00:45:07.697Z,45.67
2019-01-26T00:51:17.238Z,48.27
2019-01-26T00:57:21.102Z,47.37
2019-01-26T01:03:27.030Z,50.97
2019-01-26T01:09:33.033Z,52.67
2019-01-26T01:15:38.857Z,54.70
2019-01-26T01:21:45.184Z,56.60
2019-01-26T01:27:51.073Z,55.70
2019-01-26T01:33:56.874Z,56.17
2019-01-26T01:40:02.841Z,54.17
2019-01-26T01:46:08.720Z,58.27
2019-01-26T01:52:14.748Z,53.63
2019-01-26T01:58:20.788Z,55.17
2019-01-26T02:04:26.526Z,55.13
2019-01-26T02:10:32.286Z,57.67
2019-01-26T02:16:38.383Z,56.00
2019-01-26T02:22:44.260Z,56.87
2019-01-26T02:28:50.490Z,60.27
2019-01-26T02:34:56.384Z,59.37
2019-01-26T02:41:02.448Z,57.70
2019-01-26T02:47:08.295Z,58.30
2019-01-26T02:53:14.276Z,56.13
2019-01-26T02:59:20.265Z,57.70
2019-01-26T03:05:26.558Z,60.13
2019-01-26T03:11:32.322Z,57.83
2019-01-26T03:17:38.231Z,60.17
2019-01-26T03:23:43.963Z,59.57
2019-01-26T03:29:49.675Z,59.87
2019-01-26T03:35:55.358Z,61.17
2019-01-26T03:42:01.326Z,62.93
2019-01-26T03:48:07.625Z,60.27
2019-01-26T03:54:13.847Z,64.23
2019-01-26T04:00:26.178Z,60.23
2019-01-26T04:06:34.456Z,61.43
2019-01-26T04:12:40.453Z,61.60
2019-01-26T04:18:46.328Z,58.27
2019-01-26T04:24:52.767Z,60.93
2019-01-26T04:30:58.541Z,60.03
2019-01-26T04:37:04.318Z,62.93
2019-01-26T04:43:10.014Z,63.33
2019-01-26T04:49:15.727Z,61.50
2019-01-26T04:55:22.196Z,62.00
2019-01-26T05:01:28.089Z,62.23
2019-01-26T05:07:33.936Z,67.33
2019-01-26T05:13:39.764Z,62.97
2019-01-26T05:19:45.635Z,63.27
2019-01-26T05:25:51.371Z,61.67
2019-01-26T05:31:57.330Z,63.43
2019-01-26T05:38:05.959Z,58.03
2019-01-26T05:44:11.090Z,63.20
2019-01-26T05:50:28.525Z,61.80
2019-01-26T05:56:35.760Z,59.87
2019-01-26T06:02:41.665Z,63.07
2019-01-26T06:08:49.529Z,62.67
2019-01-26T06:14:55.338Z,56.17
2019-01-26T06:21:05.092Z,57.50
2019-01-26T06:27:12.673Z,53.73
2019-01-26T06:33:18.414Z,54.57
2019-01-26T06:39:24.373Z,55.10
2019-01-26T06:45:32.851Z,53.17
2019-01-26T06:51:40.833Z,48.63
2019-01-26T06:57:49.334Z,51.37
2019-01-26T07:03:55.267Z,49.50
2019-01-26T07:10:01.390Z,50.73
2019-01-26T07:16:07.509Z,49.57
2019-01-26T07:22:14.664Z,45.80
2019-01-26T07:28:27.120Z,47.50
2019-01-26T07:34:32.963Z,47.03
2019-01-26T07:40:43.221Z,48.13
2019-01-26T07:46:48.994Z,45.43
2019-01-26T07:52:58.113Z,43.67
2019-01-26T07:59:04.273Z,44.43
2019-01-26T08:05:11.975Z,43.17
2019-01-26T08:11:18.081Z,42.63
2019-01-26T08:17:24.121Z,44.67
2019-01-26T08:23:30.222Z,44.53
2019-01-26T08:29:36.011Z,46.17
2019-01-26T08:35:42.031Z,44.37
2019-01-26T08:41:47.819Z,44.00
2019-01-26T08:47:53.681Z,43.73
2019-01-26T08:53:59.543Z,44.00
2019-01-26T09:00:06.662Z,41.30
2019-01-26T09:06:16.874Z,40.87
2019-01-26T09:12:22.835Z,38.50
2019-01-26T09:18:28.701Z,37.17
2019-01-26T09:24:34.442Z,35.90
2019-01-26T09:30:40.435Z,35.57
2019-01-26T09:36:46.289Z,35.97
2019-01-26T09:42:52.502Z,37.23
2019-01-26T09:48:58.365Z,35.07
2019-01-26T09:55:05.002Z,36.03
2019-01-26T10:01:10.972Z,38.57
2019-01-26T10:07:16.697Z,37.57
2019-01-26T10:13:22.558Z,34.30
2019-01-26T10:19:28.389Z,36.03
2019-01-26T10:25:34.212Z,35.20
2019-01-26T10:31:40.052Z,34.10
2019-01-26T10:37:46.069Z,33.63
2019-01-26T10:43:53.133Z,32.60
2019-01-26T10:49:58.876Z,32.97
2019-01-26T10:56:04.739Z,31.60
2019-01-26T11:02:11.034Z,30.80
2019-01-26T11:08:16.905Z,30.57
2019-01-26T11:14:23.009Z,29.60
2019-01-26T11:20:28.819Z,29.40
2019-01-26T11:26:34.999Z,26.70
2019-01-26T11:32:42.235Z,26.43
2019-01-26T11:38:48.433Z,25.67
2019-01-26T11:45:21.931Z,24.30
2019-01-26T11:51:45.403Z,21.13
2019-01-26T11:57:51.824Z,21.07
2019-01-26T12:04:11.339Z,21.67
2019-01-26T12:10:17.053Z,20.97
2019-01-26T12:16:26.967Z,23.97
2019-01-26T12:22:30.697Z,29.20
2019-01-26T12:28:39.738Z,20.97
2019-01-26T12:34:45.510Z,18.13
2019-01-26T12:40:51.299Z,18.73
2019-01-26T12:46:57.148Z,17.27
2019-01-26T12:53:02.954Z,17.33
2019-01-26T12:59:08.804Z,18.90
2019-01-26T13:05:15.213Z,51.90
2019-01-26T13:11:28.056Z,14.23
2019-01-26T13:17:36.038Z,13.37
2019-01-26T13:23:42.960Z,11.80
2019-01-26T13:29:48.759Z,11.17
2019-01-26T13:35:54.701Z,10.23
2019-01-26T13:42:00.671Z,9.63
2019-01-26T13:48:06.877Z,10.73
2019-01-26T13:54:13.842Z,10.93
2019-01-26T14:00:26.326Z,10.33
2019-01-26T14:06:32.076Z,11.90
2019-01-26T14:12:37.859Z,12.27
2019-01-26T14:18:44.976Z,11.70
2019-01-26T14:24:53.924Z,13.50
2019-01-26T14:31:06.210Z,12.80
2019-01-26T14:37:13.395Z,11.17
2019-01-26T14:43:19.275Z,9.80
2019-01-26T14:49:25.036Z,8.30
2019-01-26T14:55:33.508Z,7.90
2019-01-26T15:01:38.394Z,7.53
2019-01-26T15:07:46.473Z,7.13
2019-01-26T15:13:52.216Z,7.87
2019-01-26T15:19:57.997Z,7.43
2019-01-26T15:26:03.870Z,8.23
2019-01-26T15:32:12.697Z,9.00
2019-01-26T15:38:21.031Z,8.63
2019-01-26T15:44:26.838Z,9.33
2019-01-26T15:50:32.618Z,8.37
2019-01-26T15:56:38.357Z,8.90
2019-01-26T16:02:45.793Z,8.00
2019-01-26T16:08:52.251Z,8.37
2019-01-26T16:14:58.144Z,8.30
2019-01-26T16:21:05.835Z,7.47
2019-01-26T16:27:14.118Z,8.13
2019-01-26T16:33:21.599Z,7.20
2019-01-26T16:39:27.376Z,7.63
2019-01-26T16:45:40.872Z,7.33
2019-01-26T16:51:48.391Z,7.57
2019-01-26T16:57:57.317Z,6.40
2019-01-26T17:04:03.462Z,6.97
2019-01-26T17:10:12.322Z,8.50
2019-01-26T17:16:19.787Z,7.00
2019-01-26T17:22:31.368Z,7.27
2019-01-26T17:28:37.264Z,7.03
2019-01-26T17:34:42.993Z,6.33
2019-01-26T17:40:54.214Z,7.13
2019-01-26T17:46:56.363Z,7.20
2019-01-26T17:53:02.136Z,7.40
2019-01-26T17:59:12.497Z,6.53
2019-01-26T18:05:18.370Z,5.87
2019-01-26T18:11:24.637Z,5.07
2019-01-26T18:17:30.501Z,5.37
2019-01-26T18:23:36.416Z,5.37
2019-01-26T18:29:42.290Z,6.40
2019-01-26T18:35:48.012Z,7.30
2019-01-26T18:41:53.805Z,10.07
2019-01-26T18:47:59.672Z,6.80
2019-01-26T18:54:05.660Z,5.97
2019-01-26T19:00:26.664Z,6.60
2019-01-26T19:06:34.979Z,8.47
2019-01-26T19:12:41.142Z,6.20
2019-01-26T19:18:49.235Z,6.10
2019-01-26T19:24:55.105Z,5.40
2019-01-26T19:31:00.920Z,5.10
2019-01-26T19:37:09.381Z,8.13
2019-01-26T19:43:14.440Z,5.27
2019-01-26T19:49:20.270Z,4.70
2019-01-26T19:55:26.460Z,5.63
2019-01-26T20:01:32.831Z,5.23
2019-01-26T20:07:38.745Z,4.43
2019-01-26T20:13:44.516Z,4.17
2019-01-26T20:19:50.219Z,4.27
2019-01-26T20:25:56.034Z,3.90
2019-01-26T20:32:01.910Z,4.17
2019-01-26T20:38:07.677Z,4.23
2019-01-26T20:44:13.422Z,4.07
2019-01-26T20:50:19.223Z,4.60
2019-01-26T20:56:25.082Z,4.73
2019-01-26T21:02:31.000Z,4.60
2019-01-26T21:08:36.780Z,5.07
2019-01-26T21:14:42.745Z,5.23
2019-01-26T21:20:54.776Z,4.77
2019-01-26T21:27:00.714Z,4.93
2019-01-26T21:33:07.652Z,4.13
2019-01-26T21:39:16.635Z,3.77
2019-01-26T21:45:24.545Z,3.40
2019-01-26T21:51:38.924Z,3.40
2019-01-26T21:57:41.128Z,3.03
2019-01-26T22:03:50.040Z,2.80
2019-01-26T22:09:55.892Z,2.60
2019-01-26T22:16:02.211Z,2.20
2019-01-26T22:22:08.121Z,2.30
2019-01-26T22:28:16.565Z,2.30
2019-01-26T22:34:25.445Z,2.10
2019-01-26T22:40:39.490Z,2.07
2019-01-26T22:46:45.460Z,2.30
2019-01-26T22:52:51.313Z,2.17
2019-01-26T22:58:57.165Z,2.20
2019-01-26T23:05:44.805Z,1.90
2019-01-26T23:12:22.276Z,1.70
2019-01-26T23:18:56.880Z,1.63
2019-01-26T23:25:33.112Z,2.37
2019-01-26T23:31:39.009Z,2.10
2019-01-26T23:37:45.037Z,2.40
2019-01-26T23:43:50.953Z,1.77
2019-01-26T23:49:56.675Z,2.10
2019-01-26T23:56:02.791Z,1.60
